Aérodrome :
LOGIN :

S'inscrire | Disclaimer

   EN    FR    IT 

 










Légende :    VFR   VFR Marginal   IFR   IFR Intensif   IFR Très Intensif
Visi : 
Plafond : 
>= 8 km
>= 3000ft
5 à 8 km
1000 à 3000 ft
1500m à 5 km
500 à 1000 ft
800 à 1500m
200 à 500 ft
< 800m
< 200 ft
Symboles :   Orages  Brouillard  Fortes neiges  Fortes précipitations  Vent > 20 kt
SIGMETs :   Divers  Orages  Givrage  Turbulence  Onde Orograph.  Cendres Volcan.






- Altitude de l'aérodrome : 265 ft


ETSH - Holzdorf AB

DERNIER METAR :
  • 212120Z 12002KT 1300 -DZ BR BKN002 08/08 Q1008 AMB

METARs EXPIRÉS :
  • 212020Z 00000KT 1300 BR BKN002 08/08 Q1008 AMB
  • 211920Z 07001KT 1700 -RADZ BR BKN004 08/08 Q1008 YLO

TAF AMD TAF ETSH
Valide du 21 à 15h jusqu'au 22 à 00h UTC


211531Z 2115/2124 10005KT 2500 BR BKN003
BECMG 2115/2118 10003KT 1200 BR OVC001 CANCEL 1600



MET'MAP, la Météo Aéronautique d'un coup d'oeil ! - Copyright ORBIFLY Décembre 2007 - Disclaimer

ORBIFLY MET'MAP TEAM :

Programmation & Développement : Alexandra Zaïnal
Conception & Développement : Baudouin d'Aumeries
Co-Programmation & Développement : Marc-Olivier Méhu
Soutien technique & logistique : Manuel Goepfert

Contact : metmap@orbifly.com




SOURCES & CREDITS :

   NOAA